sensor_id;sensor_type;location;lat;lon;timestamp;pressure;altitude;pressure_sealevel;temperature;humidity
14882;BME280;7533;51.278;12.588;2024-03-23T00:55:40;99333.63;;;24.09;59.32
14882;BME280;7533;51.278;12.588;2024-03-23T01:00:42;99328.28;;;24.27;59.01
14882;BME280;7533;51.278;12.588;2024-03-23T01:05:44;99317.72;;;24.34;58.78
14882;BME280;7533;51.278;12.588;2024-03-23T01:10:55;99301.25;;;24.37;58.56
14882;BME280;7533;51.278;12.588;2024-03-23T01:15:57;99292.97;;;24.28;58.82
14882;BME280;7533;51.278;12.588;2024-03-23T01:20:58;99256.13;;;24.27;58.58
14882;BME280;7533;51.278;12.588;2024-03-23T01:26:02;99248.72;;;24.29;59.08
14882;BME280;7533;51.278;12.588;2024-03-23T01:31:04;99260.53;;;24.28;58.96
14882;BME280;7533;51.278;12.588;2024-03-23T01:36:06;99250.03;;;24.25;58.84
14882;BME280;7533;51.278;12.588;2024-03-23T01:41:09;99257.41;;;24.23;58.94
14882;BME280;7533;51.278;12.588;2024-03-23T01:46:11;99247.78;;;24.21;58.96
14882;BME280;7533;51.278;12.588;2024-03-23T01:51:13;99242.66;;;24.18;59.16
14882;BME280;7533;51.278;12.588;2024-03-23T01:56:17;99234.00;;;24.14;59.22
14882;BME280;7533;51.278;12.588;2024-03-23T02:01:19;99229.19;;;24.08;59.27
14882;BME280;7533;51.278;12.588;2024-03-23T02:06:21;99217.66;;;24.06;59.31
14882;BME280;7533;51.278;12.588;2024-03-23T02:11:25;99228.91;;;24.01;59.61
14882;BME280;7533;51.278;12.588;2024-03-23T02:16:27;99221.28;;;23.97;59.63
14882;BME280;7533;51.278;12.588;2024-03-23T02:21:28;99217.16;;;23.93;60.05
14882;BME280;7533;51.278;12.588;2024-03-23T02:26:33;99211.06;;;23.91;60.18
14882;BME280;7533;51.278;12.588;2024-03-23T02:31:35;99218.59;;;23.87;60.05
14882;BME280;7533;51.278;12.588;2024-03-23T02:36:37;99208.22;;;23.83;60.35
14882;BME280;7533;51.278;12.588;2024-03-23T02:41:40;99189.75;;;23.78;60.31
14882;BME280;7533;51.278;12.588;2024-03-23T02:46:42;99172.84;;;23.76;60.42
14882;BME280;7533;51.278;12.588;2024-03-23T02:51:44;99167.88;;;23.71;60.49
14882;BME280;7533;51.278;12.588;2024-03-23T02:56:50;99160.22;;;23.67;60.52
14882;BME280;7533;51.278;12.588;2024-03-23T03:01:52;99164.09;;;23.64;60.88
14882;BME280;7533;51.278;12.588;2024-03-23T03:06:54;99154.69;;;23.59;61.01
14882;BME280;7533;51.278;12.588;2024-03-23T03:11:57;99152.84;;;23.59;61.14
14882;BME280;7533;51.278;12.588;2024-03-23T03:16:59;99151.41;;;23.55;61.10
14882;BME280;7533;51.278;12.588;2024-03-23T03:22:01;99136.06;;;23.56;61.24
14882;BME280;7533;51.278;12.588;2024-03-23T03:27:06;99140.19;;;23.50;61.33
14882;BME280;7533;51.278;12.588;2024-03-23T03:32:08;99146.03;;;23.45;61.54
14882;BME280;7533;51.278;12.588;2024-03-23T03:37:10;99111.25;;;23.42;61.44
14882;BME280;7533;51.278;12.588;2024-03-23T03:42:14;99111.25;;;23.42;61.64
14882;BME280;7533;51.278;12.588;2024-03-23T03:47:16;99103.59;;;23.38;61.79
14882;BME280;7533;51.278;12.588;2024-03-23T03:52:18;99110.00;;;23.37;61.75
14882;BME280;7533;51.278;12.588;2024-03-23T03:57:21;99101.19;;;23.35;61.82
14882;BME280;7533;51.278;12.588;2024-03-23T04:02:23;99094.91;;;23.34;61.97
14882;BME280;7533;51.278;12.588;2024-03-23T04:07:25;99095.91;;;23.33;61.99
14882;BME280;7533;51.278;12.588;2024-03-23T04:12:28;99088.97;;;23.31;62.20
14882;BME280;7533;51.278;12.588;2024-03-23T04:17:30;99072.94;;;23.29;62.14
14882;BME280;7533;51.278;12.588;2024-03-23T04:22:33;99058.72;;;23.27;62.19
14882;BME280;7533;51.278;12.588;2024-03-23T04:27:37;99002.19;;;23.26;62.29
14882;BME280;7533;51.278;12.588;2024-03-23T04:32:39;99000.50;;;23.25;62.32
14882;BME280;7533;51.278;12.588;2024-03-23T04:37:42;98986.84;;;23.26;62.19
14882;BME280;7533;51.278;12.588;2024-03-23T04:42:45;98993.22;;;23.25;62.31
14882;BME280;7533;51.278;12.588;2024-03-23T04:47:47;99005.31;;;23.21;62.47
14882;BME280;7533;51.278;12.588;2024-03-23T04:52:49;98999.91;;;23.21;62.40
14882;BME280;7533;51.278;12.588;2024-03-23T04:57:52;98980.47;;;23.17;62.52
14882;BME280;7533;51.278;12.588;2024-03-23T05:02:54;98965.28;;;23.16;62.56
14882;BME280;7533;51.278;12.588;2024-03-23T05:07:56;98929.50;;;23.14;62.70
14882;BME280;7533;51.278;12.588;2024-03-23T05:12:59;98935.06;;;23.13;62.61
14882;BME280;7533;51.278;12.588;2024-03-23T05:18:02;98936.03;;;23.12;62.82
14882;BME280;7533;51.278;12.588;2024-03-23T05:23:05;98916.28;;;23.11;62.88
14882;BME280;7533;51.278;12.588;2024-03-23T05:28:08;98901.09;;;23.10;62.93
14882;BME280;7533;51.278;12.588;2024-03-23T05:33:11;98908.34;;;23.10;63.04
14882;BME280;7533;51.278;12.588;2024-03-23T05:38:13;98898.56;;;23.09;63.05
14882;BME280;7533;51.278;12.588;2024-03-23T05:43:16;98880.34;;;23.11;63.10
14882;BME280;7533;51.278;12.588;2024-03-23T05:48:18;98872.44;;;23.09;63.09
14882;BME280;7533;51.278;12.588;2024-03-23T05:53:20;98855.69;;;23.06;63.03
14882;BME280;7533;51.278;12.588;2024-03-23T05:58:23;98852.28;;;23.04;62.94
14882;BME280;7533;51.278;12.588;2024-03-23T06:03:25;98868.47;;;23.04;62.92
14882;BME280;7533;51.278;12.588;2024-03-23T06:08:27;98858.69;;;23.03;62.81
14882;BME280;7533;51.278;12.588;2024-03-23T06:13:30;98837.56;;;22.98;62.73
14882;BME280;7533;51.278;12.588;2024-03-23T06:18:32;98827.59;;;22.99;62.62
14882;BME280;7533;51.278;12.588;2024-03-23T06:23:34;98823.22;;;22.98;62.71
14882;BME280;7533;51.278;12.588;2024-03-23T06:28:37;98831.31;;;22.98;62.61
14882;BME280;7533;51.278;12.588;2024-03-23T06:33:39;98810.72;;;22.96;62.63
14882;BME280;7533;51.278;12.588;2024-03-23T06:38:42;98784.75;;;22.95;62.60
14882;BME280;7533;51.278;12.588;2024-03-23T06:43:45;98777.50;;;22.96;62.57
14882;BME280;7533;51.278;12.588;2024-03-23T06:48:47;98778.66;;;22.93;62.54
14882;BME280;7533;51.278;12.588;2024-03-23T06:53:49;98754.38;;;22.93;62.68
14882;BME280;7533;51.278;12.588;2024-03-23T06:58:52;98754.38;;;22.93;62.71
14882;BME280;7533;51.278;12.588;2024-03-23T07:03:54;98735.47;;;22.93;62.68
14882;BME280;7533;51.278;12.588;2024-03-23T07:08:57;98726.53;;;22.93;62.63
14882;BME280;7533;51.278;12.588;2024-03-23T07:14:00;98704.13;;;22.92;62.55
14882;BME280;7533;51.278;12.588;2024-03-23T07:19:03;98703.28;;;22.92;62.63
14882;BME280;7533;51.278;12.588;2024-03-23T07:24:05;98693.31;;;22.92;62.55
14882;BME280;7533;51.278;12.588;2024-03-23T07:29:08;98667.88;;;22.95;62.68
14882;BME280;7533;51.278;12.588;2024-03-23T07:34:10;98668.03;;;22.93;62.65
14882;BME280;7533;51.278;12.588;2024-03-23T07:39:13;98668.88;;;22.94;62.60
14882;BME280;7533;51.278;12.588;2024-03-23T07:44:16;98676.13;;;22.93;62.93
14882;BME280;7533;51.278;12.588;2024-03-23T07:49:18;98679.16;;;22.90;62.69
14882;BME280;7533;51.278;12.588;2024-03-23T07:54:20;98719.47;;;22.92;62.55
14882;BME280;7533;51.278;12.588;2024-03-23T07:59:23;98744.56;;;22.47;57.67
14882;BME280;7533;51.278;12.588;2024-03-23T08:04:27;98732.28;;;22.35;54.21
14882;BME280;7533;51.278;12.588;2024-03-23T08:09:28;98705.34;;;21.88;56.19
14882;BME280;7533;51.278;12.588;2024-03-23T08:14:32;98737.84;;;21.77;56.05
14882;BME280;7533;51.278;12.588;2024-03-23T08:19:34;98755.91;;;22.04;57.10
14882;BME280;7533;51.278;12.588;2024-03-23T08:29:39;98826.22;;;22.30;57.40
14882;BME280;7533;51.278;12.588;2024-03-23T08:34:40;98846.88;;;22.39;57.34
14882;BME280;7533;51.278;12.588;2024-03-23T08:39:43;98854.53;;;22.43;57.53
14882;BME280;7533;51.278;12.588;2024-03-23T08:44:47;98878.59;;;22.55;57.70
14882;BME280;7533;51.278;12.588;2024-03-23T08:49:50;98910.53;;;22.59;57.82
14882;BME280;7533;51.278;12.588;2024-03-23T08:54:52;98924.41;;;22.64;57.75
14882;BME280;7533;51.278;12.588;2024-03-23T08:59:55;98939.16;;;22.70;57.80
14882;BME280;7533;51.278;12.588;2024-03-23T09:04:57;98954.06;;;22.74;57.86
14882;BME280;7533;51.278;12.588;2024-03-23T09:10:05;98967.81;;;22.81;58.05
14882;BME280;7533;51.278;12.588;2024-03-23T09:15:09;98993.50;;;22.85;58.03
14882;BME280;7533;51.278;12.588;2024-03-23T09:20:11;99011.25;;;22.87;58.16
14882;BME280;7533;51.278;12.588;2024-03-23T09:25:13;98996.50;;;22.91;58.43
14882;BME280;7533;51.278;12.588;2024-03-23T09:30:17;98999.72;;;22.95;58.29
14882;BME280;7533;51.278;12.588;2024-03-23T09:35:20;98986.66;;;23.00;58.31
14882;BME280;7533;51.278;12.588;2024-03-23T09:40:22;99038.47;;;23.04;58.36
14882;BME280;7533;51.278;12.588;2024-03-23T09:45:28;99063.34;;;23.07;58.43
14882;BME280;7533;51.278;12.588;2024-03-23T09:50:31;99083.94;;;23.08;58.48
14882;BME280;7533;51.278;12.588;2024-03-23T09:55:33;99097.25;;;23.10;58.46
14882;BME280;7533;51.278;12.588;2024-03-23T10:00:37;99104.38;;;23.11;58.60
14882;BME280;7533;51.278;12.588;2024-03-23T10:05:39;99106.94;;;23.12;58.52
14882;BME280;7533;51.278;12.588;2024-03-23T10:10:42;99128.38;;;23.14;58.62
14882;BME280;7533;51.278;12.588;2024-03-23T10:15:45;99156.91;;;23.16;58.54
14882;BME280;7533;51.278;12.588;2024-03-23T10:20:51;99174.97;;;23.16;58.39
14882;BME280;7533;51.278;12.588;2024-03-23T10:25:53;99172.09;;;23.17;58.29
14882;BME280;7533;51.278;12.588;2024-03-23T10:30:56;99174.53;;;23.20;58.35
14882;BME280;7533;51.278;12.588;2024-03-23T10:35:59;99198.41;;;23.25;58.40
14882;BME280;7533;51.278;12.588;2024-03-23T10:41:01;99212.75;;;23.26;58.43
14882;BME280;7533;51.278;12.588;2024-03-23T10:46:05;99223.25;;;23.29;58.30
14882;BME280;7533;51.278;12.588;2024-03-23T10:51:08;99244.72;;;23.30;58.16
14882;BME280;7533;51.278;12.588;2024-03-23T10:56:11;99252.66;;;23.32;58.29
14882;BME280;7533;51.278;12.588;2024-03-23T11:01:15;99268.59;;;23.35;58.06
14882;BME280;7533;51.278;12.588;2024-03-23T11:06:34;99271.28;;;23.35;58.12
14882;BME280;7533;51.278;12.588;2024-03-23T11:11:36;99274.69;;;23.37;58.03
14882;BME280;7533;51.278;12.588;2024-03-23T11:16:39;99265.59;;;23.38;57.91
14882;BME280;7533;51.278;12.588;2024-03-23T11:21:54;99270.00;;;23.39;57.73
14882;BME280;7533;51.278;12.588;2024-03-23T11:26:56;99268.28;;;23.38;57.73
14882;BME280;7533;51.278;12.588;2024-03-23T11:32:02;99269.13;;;23.38;57.46
14882;BME280;7533;51.278;12.588;2024-03-23T11:37:05;99268.88;;;23.41;56.83
14882;BME280;7533;51.278;12.588;2024-03-23T11:42:07;99261.63;;;23.42;56.07
14882;BME280;7533;51.278;12.588;2024-03-23T11:47:11;99266.16;;;23.41;55.23
14882;BME280;7533;51.278;12.588;2024-03-23T11:52:15;99273.41;;;23.41;54.52
14882;BME280;7533;51.278;12.588;2024-03-23T11:57:18;99275.28;;;23.40;53.82
14882;BME280;7533;51.278;12.588;2024-03-23T12:02:22;99267.56;;;23.45;53.18
14882;BME280;7533;51.278;12.588;2024-03-23T12:07:23;99262.47;;;23.52;52.01
14882;BME280;7533;51.278;12.588;2024-03-23T12:12:25;99254.47;;;23.60;50.93
14882;BME280;7533;51.278;12.588;2024-03-23T12:17:29;99248.50;;;23.57;50.45
14882;BME280;7533;51.278;12.588;2024-03-23T12:22:31;99261.72;;;23.60;50.90
14882;BME280;7533;51.278;12.588;2024-03-23T12:27:33;99265.13;;;23.62;50.32
14882;BME280;7533;51.278;12.588;2024-03-23T12:32:36;99261.47;;;23.63;50.55
14882;BME280;7533;51.278;12.588;2024-03-23T12:37:38;99255.19;;;23.62;49.85
14882;BME280;7533;51.278;12.588;2024-03-23T12:42:40;99248.81;;;23.63;49.93
14882;BME280;7533;51.278;12.588;2024-03-23T12:47:43;99255.44;;;23.88;49.85
14882;BME280;7533;51.278;12.588;2024-03-23T12:52:45;99248.16;;;23.98;48.70
14882;BME280;7533;51.278;12.588;2024-03-23T12:57:48;99241.56;;;24.01;48.94
14882;BME280;7533;51.278;12.588;2024-03-23T13:02:51;99226.94;;;24.04;49.24
14882;BME280;7533;51.278;12.588;2024-03-23T13:07:53;99216.97;;;24.04;49.77
14882;BME280;7533;51.278;12.588;2024-03-23T13:12:55;99224.69;;;24.26;49.76
14882;BME280;7533;51.278;12.588;2024-03-23T13:17:59;99206.06;;;24.51;49.56
14882;BME280;7533;51.278;12.588;2024-03-23T13:23:00;99202.03;;;24.37;50.09
14882;BME280;7533;51.278;12.588;2024-03-23T13:28:04;99197.50;;;24.56;50.07
14882;BME280;7533;51.278;12.588;2024-03-23T13:33:07;99198.91;;;24.32;50.61
14882;BME280;7533;51.278;12.588;2024-03-23T13:38:10;99186.00;;;24.26;50.93
14882;BME280;7533;51.278;12.588;2024-03-23T13:43:12;99187.25;;;24.04;51.29
14882;BME280;7533;51.278;12.588;2024-03-23T13:48:16;99185.38;;;24.32;50.79
14882;BME280;7533;51.278;12.588;2024-03-23T13:53:19;99160.16;;;24.41;50.64
14882;BME280;7533;51.278;12.588;2024-03-23T13:58:22;99178.38;;;24.39;50.89
14882;BME280;7533;51.278;12.588;2024-03-23T14:03:27;99174.94;;;24.47;50.70
14882;BME280;7533;51.278;12.588;2024-03-23T14:08:30;99179.63;;;24.45;51.08
14882;BME280;7533;51.278;12.588;2024-03-23T14:13:33;99179.00;;;24.23;51.28
14882;BME280;7533;51.278;12.588;2024-03-23T14:18:37;99212.06;;;24.17;51.59
14882;BME280;7533;51.278;12.588;2024-03-23T14:23:39;99216.63;;;24.17;51.84
14882;BME280;7533;51.278;12.588;2024-03-23T14:28:41;99203.94;;;24.17;51.99
14882;BME280;7533;51.278;12.588;2024-03-23T14:33:45;99203.81;;;24.19;51.93
14882;BME280;7533;51.278;12.588;2024-03-23T14:38:48;99222.88;;;24.17;52.32
14882;BME280;7533;51.278;12.588;2024-03-23T14:43:50;99203.44;;;24.41;51.94
14882;BME280;7533;51.278;12.588;2024-03-23T14:48:55;99206.38;;;24.48;51.76
14882;BME280;7533;51.278;12.588;2024-03-23T14:53:57;99266.94;;;24.37;52.25
14882;BME280;7533;51.278;12.588;2024-03-23T14:58:59;99285.03;;;24.27;52.01
14882;BME280;7533;51.278;12.588;2024-03-23T15:04:03;99285.03;;;24.27;51.85
14882;BME280;7533;51.278;12.588;2024-03-23T15:09:05;99298.97;;;24.22;51.87
14882;BME280;7533;51.278;12.588;2024-03-23T15:14:08;99311.09;;;24.18;52.24
14882;BME280;7533;51.278;12.588;2024-03-23T15:19:12;99303.44;;;24.14;52.07
14882;BME280;7533;51.278;12.588;2024-03-23T15:24:14;99292.06;;;24.10;52.20
14882;BME280;7533;51.278;12.588;2024-03-23T15:29:16;99254.22;;;24.10;52.41
14882;BME280;7533;51.278;12.588;2024-03-23T15:34:20;99209.16;;;24.28;52.66
14882;BME280;7533;51.278;12.588;2024-03-23T15:39:22;99208.78;;;24.69;51.90
14882;BME280;7533;51.278;12.588;2024-03-23T15:44:24;99205.81;;;25.08;51.44
14882;BME280;7533;51.278;12.588;2024-03-23T15:49:27;99203.31;;;25.32;51.38
14882;BME280;7533;51.278;12.588;2024-03-23T15:54:29;99201.72;;;25.47;51.25
14882;BME280;7533;51.278;12.588;2024-03-23T15:59:31;99198.28;;;25.63;51.13
14882;BME280;7533;51.278;12.588;2024-03-23T16:04:34;99198.75;;;25.76;50.69
14882;BME280;7533;51.278;12.588;2024-03-23T16:09:36;99211.19;;;25.87;50.81
14882;BME280;7533;51.278;12.588;2024-03-23T16:14:38;99200.06;;;25.98;50.67
14882;BME280;7533;51.278;12.588;2024-03-23T16:19:42;99198.38;;;26.05;50.56
14882;BME280;7533;51.278;12.588;2024-03-23T16:24:44;99201.97;;;26.14;50.07
14882;BME280;7533;51.278;12.588;2024-03-23T16:29:46;99199.63;;;26.19;50.11
14882;BME280;7533;51.278;12.588;2024-03-23T16:34:49;99193.88;;;26.22;50.38
14882;BME280;7533;51.278;12.588;2024-03-23T16:39:51;99199.72;;;26.01;50.59
14882;BME280;7533;51.278;12.588;2024-03-23T16:44:53;99208.19;;;25.98;50.82
14882;BME280;7533;51.278;12.588;2024-03-23T16:49:56;99195.53;;;25.81;50.85
14882;BME280;7533;51.278;12.588;2024-03-23T16:54:59;99203.47;;;25.74;51.24
14882;BME280;7533;51.278;12.588;2024-03-23T17:00:02;99195.09;;;25.68;51.37
14882;BME280;7533;51.278;12.588;2024-03-23T17:05:05;99196.19;;;25.57;51.29
14882;BME280;7533;51.278;12.588;2024-03-23T17:10:08;99205.44;;;25.46;51.50
14882;BME280;7533;51.278;12.588;2024-03-23T17:15:11;99206.75;;;25.16;52.40
14882;BME280;7533;51.278;12.588;2024-03-23T17:20:17;99209.66;;;25.05;52.63
14882;BME280;7533;51.278;12.588;2024-03-23T17:25:18;99251.63;;;24.91;52.65
14882;BME280;7533;51.278;12.588;2024-03-23T17:30:20;99262.56;;;24.82;52.65
14882;BME280;7533;51.278;12.588;2024-03-23T17:35:24;99256.03;;;24.74;52.90
14882;BME280;7533;51.278;12.588;2024-03-23T17:40:25;99248.00;;;24.65;53.11
14882;BME280;7533;51.278;12.588;2024-03-23T17:45:53;99238.75;;;24.58;53.21
14882;BME280;7533;51.278;12.588;2024-03-23T17:51:03;99243.94;;;24.51;53.68
14882;BME280;7533;51.278;12.588;2024-03-23T17:56:07;99237.44;;;24.44;53.88
14882;BME280;7533;51.278;12.588;2024-03-23T18:01:09;99238.03;;;24.38;53.90
14882;BME280;7533;51.278;12.588;2024-03-23T18:06:14;99236.59;;;24.34;54.04
14882;BME280;7533;51.278;12.588;2024-03-23T18:11:16;99248.88;;;24.28;54.43
14882;BME280;7533;51.278;12.588;2024-03-23T18:16:18;99240.34;;;24.23;54.48
14882;BME280;7533;51.278;12.588;2024-03-23T18:21:21;99242.53;;;24.19;54.50
14882;BME280;7533;51.278;12.588;2024-03-23T18:26:23;99243.81;;;24.15;54.85
14882;BME280;7533;51.278;12.588;2024-03-23T18:31:25;99244.25;;;24.11;54.84
14882;BME280;7533;51.278;12.588;2024-03-23T18:36:28;99252.69;;;24.08;54.98
14882;BME280;7533;51.278;12.588;2024-03-23T18:41:31;99248.56;;;24.04;54.94
14882;BME280;7533;51.278;12.588;2024-03-23T18:46:33;99248.84;;;24.00;54.99
14882;BME280;7533;51.278;12.588;2024-03-23T18:51:36;99251.84;;;23.97;55.23
14882;BME280;7533;51.278;12.588;2024-03-23T18:56:39;99256.84;;;23.92;55.37
14882;BME280;7533;51.278;12.588;2024-03-23T19:01:41;99259.69;;;23.91;55.58
14882;BME280;7533;51.278;12.588;2024-03-23T19:06:44;99259.28;;;23.86;55.48
14882;BME280;7533;51.278;12.588;2024-03-23T19:11:46;99254.16;;;23.83;55.63
14882;BME280;7533;51.278;12.588;2024-03-23T19:16:48;99260.00;;;23.78;55.74
14882;BME280;7533;51.278;12.588;2024-03-23T19:21:53;99266.56;;;23.75;55.86
14882;BME280;7533;51.278;12.588;2024-03-23T19:26:55;99261.59;;;23.71;55.86
14882;BME280;7533;51.278;12.588;2024-03-23T19:31:57;99260.06;;;23.68;55.74
14882;BME280;7533;51.278;12.588;2024-03-23T19:37:00;99266.41;;;23.67;55.70
14882;BME280;7533;51.278;12.588;2024-03-23T19:42:02;99254.91;;;23.65;55.79
14882;BME280;7533;51.278;12.588;2024-03-23T19:47:04;99248.06;;;23.61;55.78
14882;BME280;7533;51.278;12.588;2024-03-23T19:52:07;99244.66;;;23.59;55.88
14882;BME280;7533;51.278;12.588;2024-03-23T19:57:09;99243.97;;;23.57;56.00
14882;BME280;7533;51.278;12.588;2024-03-23T20:02:11;99235.16;;;23.55;56.03
14882;BME280;7533;51.278;12.588;2024-03-23T20:07:16;99243.56;;;23.52;56.12
14882;BME280;7533;51.278;12.588;2024-03-23T20:12:17;99251.78;;;23.50;56.22
14882;BME280;7533;51.278;12.588;2024-03-23T20:17:19;99248.38;;;23.48;56.19
14882;BME280;7533;51.278;12.588;2024-03-23T20:22:24;99266.44;;;23.48;56.19
14882;BME280;7533;51.278;12.588;2024-03-23T20:27:27;99266.00;;;23.43;56.20
14882;BME280;7533;51.278;12.588;2024-03-23T20:32:29;99265.31;;;23.41;56.23
14882;BME280;7533;51.278;12.588;2024-03-23T20:37:32;99270.72;;;23.41;56.34
14882;BME280;7533;51.278;12.588;2024-03-23T20:42:34;99259.19;;;23.39;56.36
14882;BME280;7533;51.278;12.588;2024-03-23T20:47:35;99248.69;;;23.36;56.43
14882;BME280;7533;51.278;12.588;2024-03-23T20:52:40;99249.53;;;23.36;56.52
14882;BME280;7533;51.278;12.588;2024-03-23T20:57:42;99247.97;;;23.34;56.63
14882;BME280;7533;51.278;12.588;2024-03-23T21:02:44;99250.97;;;23.31;56.63
14882;BME280;7533;51.278;12.588;2024-03-23T21:07:47;99249.13;;;23.31;56.63
14882;BME280;7533;51.278;12.588;2024-03-23T21:12:49;99243.88;;;23.30;56.66
14882;BME280;7533;51.278;12.588;2024-03-23T21:17:51;99235.88;;;23.28;56.72
14882;BME280;7533;51.278;12.588;2024-03-23T21:22:54;99239.75;;;23.26;56.66
14882;BME280;7533;51.278;12.588;2024-03-23T21:27:56;99227.94;;;23.27;56.86
14882;BME280;7533;51.278;12.588;2024-03-23T21:32:58;99223.53;;;23.26;56.79
14882;BME280;7533;51.278;12.588;2024-03-23T21:38:02;99220.00;;;23.25;56.94
14882;BME280;7533;51.278;12.588;2024-03-23T21:43:04;99223.81;;;23.22;57.00
14882;BME280;7533;51.278;12.588;2024-03-23T21:48:07;99219.41;;;23.21;57.08
14882;BME280;7533;51.278;12.588;2024-03-23T21:53:10;99215.03;;;23.20;57.12
14882;BME280;7533;51.278;12.588;2024-03-23T21:58:12;99212.47;;;23.19;57.27
14882;BME280;7533;51.278;12.588;2024-03-23T22:03:14;99191.88;;;23.18;57.29
14882;BME280;7533;51.278;12.588;2024-03-23T22:08:18;99200.94;;;23.17;57.26
14882;BME280;7533;51.278;12.588;2024-03-23T22:13:20;99184.91;;;23.15;57.28
14882;BME280;7533;51.278;12.588;2024-03-23T22:18:22;99177.97;;;23.13;57.50
14882;BME280;7533;51.278;12.588;2024-03-23T22:23:25;99179.66;;;23.14;57.54
14882;BME280;7533;51.278;12.588;2024-03-23T22:28:28;99176.81;;;23.15;57.72
14882;BME280;7533;51.278;12.588;2024-03-23T22:33:30;99179.81;;;23.12;57.89
14882;BME280;7533;51.278;12.588;2024-03-23T22:38:34;99171.00;;;23.10;57.88
14882;BME280;7533;51.278;12.588;2024-03-23T22:43:36;99170.13;;;23.10;58.04
14882;BME280;7533;51.278;12.588;2024-03-23T22:48:38;99174.69;;;23.09;58.02
14882;BME280;7533;51.278;12.588;2024-03-23T22:53:41;99158.75;;;23.06;58.08
14882;BME280;7533;51.278;12.588;2024-03-23T22:58:43;99161.47;;;23.06;58.30
14882;BME280;7533;51.278;12.588;2024-03-23T23:03:44;99162.47;;;23.05;58.27
14882;BME280;7533;51.278;12.588;2024-03-23T23:08:48;99166.16;;;23.04;58.33
14882;BME280;7533;51.278;12.588;2024-03-23T23:13:49;99164.47;;;23.03;58.40
14882;BME280;7533;51.278;12.588;2024-03-23T23:18:51;99159.06;;;23.03;58.47
14882;BME280;7533;51.278;12.588;2024-03-23T23:23:54;99159.06;;;23.03;58.35
14882;BME280;7533;51.278;12.588;2024-03-23T23:28:56;99148.56;;;23.00;58.31
14882;BME280;7533;51.278;12.588;2024-03-23T23:33:58;99144.72;;;23.03;58.24
14882;BME280;7533;51.278;12.588;2024-03-23T23:39:01;99138.75;;;22.99;58.30
14882;BME280;7533;51.278;12.588;2024-03-23T23:44:04;99131.66;;;22.98;58.32
14882;BME280;7533;51.278;12.588;2024-03-23T23:49:07;99129.97;;;22.97;58.50
14882;BME280;7533;51.278;12.588;2024-03-23T23:54:10;99127.28;;;22.97;58.40
14882;BME280;7533;51.278;12.588;2024-03-23T23:59:12;99119.31;;;22.95;58.31
